createdAt,value
2023-05-25T00:01:16.495Z,3.70
2023-05-25T00:03:43.709Z,3.90
2023-05-25T00:06:10.900Z,3.90
2023-05-25T00:08:40.448Z,4.35
2023-05-25T00:11:07.354Z,3.65
2023-05-25T00:13:34.214Z,3.60
2023-05-25T00:16:01.085Z,4.50
2023-05-25T00:18:27.994Z,3.90
2023-05-25T00:20:55.111Z,4.07
2023-05-25T00:23:22.187Z,4.05
2023-05-25T00:25:49.132Z,4.25
2023-05-25T00:28:16.166Z,4.45
2023-05-25T00:30:43.171Z,4.10
2023-05-25T00:33:10.654Z,4.03
2023-05-25T00:35:38.002Z,3.90
2023-05-25T00:38:04.951Z,3.90
2023-05-25T00:40:31.799Z,4.13
2023-05-25T00:42:59.023Z,4.30
2023-05-25T00:45:25.973Z,3.92
2023-05-25T00:47:53.059Z,4.15
2023-05-25T00:50:22.463Z,4.13
2023-05-25T00:52:50.397Z,3.58
2023-05-25T00:55:17.276Z,4.20
2023-05-25T00:57:46.069Z,4.32
2023-05-25T01:00:13.760Z,4.30
2023-05-25T01:02:41.565Z,4.40
2023-05-25T01:05:09.624Z,3.80
2023-05-25T01:07:37.119Z,4.15
2023-05-25T01:10:07.947Z,4.30
2023-05-25T01:12:37.068Z,3.78
2023-05-25T01:15:04.298Z,4.28
2023-05-25T01:17:32.336Z,4.32
2023-05-25T01:20:09.725Z,4.47
2023-05-25T01:22:40.714Z,3.78
2023-05-25T01:25:22.538Z,4.38
2023-05-25T01:27:54.735Z,3.83
2023-05-25T01:30:22.960Z,3.75
2023-05-25T01:32:50.574Z,3.72
2023-05-25T01:35:19.893Z,4.63
2023-05-25T01:37:47.193Z,4.35
2023-05-25T01:40:15.208Z,4.40
2023-05-25T01:42:42.238Z,4.35
2023-05-25T01:45:10.082Z,4.20
2023-05-25T01:48:09.415Z,3.35
2023-05-25T01:50:52.668Z,3.78
2023-05-25T01:53:22.380Z,3.55
2023-05-25T01:56:08.897Z,3.80
2023-05-25T01:58:40.977Z,4.63
2023-05-25T02:01:08.814Z,4.15
2023-05-25T02:03:39.421Z,3.88
2023-05-25T02:06:06.394Z,4.05
2023-05-25T02:08:35.191Z,4.10
2023-05-25T02:11:02.242Z,3.92
2023-05-25T02:13:29.241Z,4.10
2023-05-25T02:15:56.500Z,4.60
2023-05-25T02:18:23.793Z,3.92
2023-05-25T02:20:54.200Z,4.10
2023-05-25T02:23:21.753Z,4.00
2023-05-25T02:25:48.712Z,4.28
2023-05-25T02:28:16.493Z,4.18
2023-05-25T02:30:43.441Z,3.67
2023-05-25T02:33:10.380Z,3.70
2023-05-25T02:35:38.314Z,4.32
2023-05-25T02:38:05.218Z,4.28
2023-05-25T02:40:32.465Z,4.55
2023-05-25T02:42:59.447Z,3.78
2023-05-25T02:45:26.472Z,3.92
2023-05-25T02:47:53.485Z,3.85
2023-05-25T02:50:22.398Z,4.13
2023-05-25T02:52:55.048Z,3.47
2023-05-25T02:55:21.967Z,4.05
2023-05-25T02:57:50.029Z,3.92
2023-05-25T03:00:32.385Z,4.07
2023-05-25T03:02:59.405Z,4.00
2023-05-25T03:05:26.395Z,4.05
2023-05-25T03:07:53.413Z,4.03
2023-05-25T03:10:20.799Z,4.03
2023-05-25T03:12:47.940Z,4.25
2023-05-25T03:15:15.074Z,3.90
2023-05-25T03:17:42.136Z,3.85
2023-05-25T03:20:10.610Z,4.15
2023-05-25T03:22:41.969Z,3.38
2023-05-25T03:25:11.763Z,4.10
2023-05-25T03:27:39.401Z,3.67
2023-05-25T03:30:09.154Z,4.25
2023-05-25T03:32:36.392Z,3.95
2023-05-25T03:35:05.385Z,4.10
2023-05-25T03:37:32.805Z,3.72
2023-05-25T03:39:59.774Z,3.67
2023-05-25T03:42:26.672Z,3.88
2023-05-25T03:44:53.679Z,3.88
2023-05-25T03:47:20.770Z,3.70
2023-05-25T03:49:48.310Z,4.03
2023-05-25T03:52:15.327Z,4.00
2023-05-25T03:54:42.766Z,3.75
2023-05-25T03:57:09.722Z,3.60
2023-05-25T03:59:36.752Z,3.88
2023-05-25T04:02:03.708Z,4.00
2023-05-25T04:04:30.706Z,3.30
2023-05-25T04:06:58.735Z,4.25
2023-05-25T04:09:25.846Z,4.30
2023-05-25T04:11:52.775Z,4.28
2023-05-25T04:14:21.281Z,4.25
2023-05-25T04:16:48.926Z,3.95
2023-05-25T04:19:16.689Z,3.40
2023-05-25T04:21:43.738Z,4.13
2023-05-25T04:24:11.480Z,4.03
2023-05-25T04:26:39.583Z,3.72
2023-05-25T04:29:07.177Z,4.35
2023-05-25T04:31:45.749Z,3.72
2023-05-25T04:34:33.921Z,3.67
2023-05-25T04:37:09.215Z,4.50
2023-05-25T04:39:37.115Z,4.47
2023-05-25T04:42:04.972Z,4.22
2023-05-25T04:44:33.654Z,3.95
2023-05-25T04:47:01.733Z,3.65
2023-05-25T04:49:34.093Z,4.43
2023-05-25T04:52:01.229Z,3.70
2023-05-25T04:54:30.246Z,3.90
2023-05-25T04:56:59.890Z,4.60
2023-05-25T04:59:26.867Z,3.20
2023-05-25T05:01:53.860Z,3.38
2023-05-25T05:04:20.913Z,4.65
2023-05-25T05:06:48.686Z,3.55
2023-05-25T05:09:19.661Z,4.10
2023-05-25T05:11:47.779Z,4.05
2023-05-25T05:14:14.791Z,4.32
2023-05-25T05:16:43.892Z,3.97
2023-05-25T05:19:10.971Z,3.63
2023-05-25T05:21:38.606Z,3.30
2023-05-25T05:24:07.363Z,3.17
2023-05-25T05:26:44.564Z,4.15
2023-05-25T05:29:21.369Z,4.13
2023-05-25T05:31:48.743Z,3.83
2023-05-25T05:34:15.795Z,3.75
2023-05-25T05:36:56.646Z,4.10
2023-05-25T05:39:24.791Z,3.83
2023-05-25T05:41:51.822Z,4.70
2023-05-25T05:44:25.946Z,3.88
2023-05-25T05:47:00.539Z,3.95
2023-05-25T05:51:56.439Z,3.92
2023-05-25T05:54:23.452Z,3.95
2023-05-25T05:56:51.328Z,4.03
2023-05-25T05:59:18.523Z,3.63
2023-05-25T06:01:45.602Z,3.78
2023-05-25T06:04:13.495Z,3.78
2023-05-25T06:06:42.191Z,3.75
2023-05-25T06:09:09.230Z,3.88
2023-05-25T06:11:37.140Z,3.50
2023-05-25T06:14:04.393Z,4.10
2023-05-25T06:16:31.550Z,4.53
2023-05-25T06:18:58.619Z,3.60
2023-05-25T06:21:25.560Z,4.13
2023-05-25T06:23:52.819Z,3.88
2023-05-25T06:26:19.828Z,3.80
2023-05-25T06:28:47.787Z,4.28
2023-05-25T06:31:14.839Z,3.60
2023-05-25T06:33:41.897Z,4.15
2023-05-25T06:36:09.109Z,4.07
2023-05-25T06:38:36.112Z,3.92
2023-05-25T06:41:05.016Z,3.70
2023-05-25T06:43:32.712Z,4.38
2023-05-25T06:46:18.173Z,4.22
2023-05-25T06:48:46.259Z,4.35
2023-05-25T06:51:13.544Z,4.00
2023-05-25T06:53:42.912Z,4.10
2023-05-25T06:56:09.870Z,3.72
2023-05-25T06:58:36.744Z,4.18
2023-05-25T07:01:03.838Z,4.05
2023-05-25T07:03:31.008Z,4.10
2023-05-25T07:05:58.498Z,4.10
2023-05-25T07:08:25.466Z,4.00
2023-05-25T07:10:52.533Z,4.35
2023-05-25T07:13:19.564Z,4.60
2023-05-25T07:15:47.423Z,4.05
2023-05-25T07:18:14.626Z,4.63
2023-05-25T07:20:42.406Z,5.53
2023-05-25T07:23:10.441Z,5.15
2023-05-25T07:25:40.849Z,4.32
2023-05-25T07:28:08.264Z,5.25
2023-05-25T07:30:35.403Z,4.35
2023-05-25T07:33:02.745Z,4.20
2023-05-25T07:35:29.726Z,4.80
2023-05-25T07:37:59.626Z,4.50
2023-05-25T07:40:26.786Z,4.45
2023-05-25T07:42:54.023Z,4.22
2023-05-25T07:45:21.555Z,4.60
2023-05-25T07:47:48.550Z,4.95
2023-05-25T07:50:15.632Z,5.00
2023-05-25T07:52:42.796Z,5.05
2023-05-25T07:55:12.908Z,4.55
2023-05-25T07:57:39.944Z,4.18
2023-05-25T08:00:11.139Z,5.25
2023-05-25T08:02:41.864Z,5.32
2023-05-25T08:05:10.283Z,5.30
2023-05-25T08:07:38.628Z,4.75
2023-05-25T08:10:07.583Z,4.57
2023-05-25T08:12:48.035Z,4.72
2023-05-25T08:15:17.061Z,4.28
2023-05-25T08:17:44.306Z,4.65
2023-05-25T08:20:11.950Z,4.82
2023-05-25T08:22:38.924Z,5.25
2023-05-25T08:25:06.983Z,5.18
2023-05-25T08:27:35.781Z,5.03
2023-05-25T08:30:08.769Z,5.25
2023-05-25T08:32:35.765Z,5.35
2023-05-25T08:35:03.621Z,5.30
2023-05-25T08:37:32.162Z,4.72
2023-05-25T08:40:01.035Z,5.35
2023-05-25T08:42:28.725Z,5.30
2023-05-25T08:44:56.882Z,4.93
2023-05-25T08:47:24.824Z,5.07
2023-05-25T08:49:52.823Z,5.45
2023-05-25T08:52:23.163Z,5.05
2023-05-25T08:54:51.690Z,5.95
2023-05-25T08:57:51.330Z,4.78
2023-05-25T09:00:18.746Z,5.45
2023-05-25T09:02:51.285Z,5.25
2023-05-25T09:05:18.806Z,5.32
2023-05-25T09:07:45.860Z,5.38
2023-05-25T09:10:12.985Z,5.82
2023-05-25T09:12:39.962Z,5.07
2023-05-25T09:15:07.523Z,5.15
2023-05-25T09:17:36.521Z,5.50
2023-05-25T09:20:05.968Z,5.63
2023-05-25T09:22:32.890Z,5.35
2023-05-25T09:24:59.832Z,5.13
2023-05-25T09:27:26.726Z,5.18
2023-05-25T09:29:53.794Z,5.88
2023-05-25T09:32:20.997Z,5.28
2023-05-25T09:34:48.092Z,6.03
2023-05-25T09:37:16.792Z,6.00
2023-05-25T09:39:44.362Z,5.85
2023-05-25T09:42:11.853Z,5.30
2023-05-25T09:44:39.401Z,5.93
2023-05-25T09:47:06.721Z,5.75
2023-05-25T09:49:33.653Z,6.22
2023-05-25T09:52:01.215Z,5.63
2023-05-25T09:54:28.235Z,6.35
2023-05-25T09:56:55.231Z,5.53
2023-05-25T09:59:22.980Z,5.25
2023-05-25T10:01:53.807Z,5.22
2023-05-25T10:04:21.148Z,5.22
2023-05-25T10:06:50.087Z,5.43
2023-05-25T10:09:18.371Z,5.57
2023-05-25T10:11:45.356Z,5.43
2023-05-25T10:14:14.789Z,5.53
2023-05-25T10:16:41.745Z,5.38
2023-05-25T10:19:27.459Z,6.00
2023-05-25T10:22:09.278Z,6.10
2023-05-25T10:24:50.326Z,6.10
2023-05-25T10:27:27.493Z,5.47
2023-05-25T10:29:56.396Z,5.43
2023-05-25T10:32:23.381Z,5.50
2023-05-25T10:34:51.642Z,5.78
2023-05-25T10:37:18.641Z,5.53
2023-05-25T10:39:45.830Z,5.60
2023-05-25T10:42:13.359Z,6.25
2023-05-25T10:44:41.956Z,5.70
2023-05-25T10:47:08.982Z,5.70
2023-05-25T10:49:59.126Z,6.07
2023-05-25T10:52:30.765Z,5.70
2023-05-25T10:55:05.102Z,5.75
2023-05-25T10:57:32.735Z,5.70
2023-05-25T11:00:06.788Z,5.50
2023-05-25T11:02:53.685Z,6.30
2023-05-25T11:05:26.943Z,5.70
2023-05-25T11:07:54.486Z,4.60
2023-05-25T11:11:00.298Z,5.43
2023-05-25T11:13:43.748Z,6.25
2023-05-25T11:16:20.624Z,5.38
2023-05-25T11:18:55.304Z,5.78
2023-05-25T11:21:28.959Z,6.18
2023-05-25T11:24:06.918Z,6.13
2023-05-25T11:26:34.610Z,6.45
2023-05-25T11:29:03.190Z,6.60
2023-05-25T11:31:34.878Z,5.93
2023-05-25T11:34:05.996Z,6.10
2023-05-25T11:36:34.894Z,7.15
2023-05-25T11:39:08.561Z,6.20
2023-05-25T11:41:42.328Z,6.07
2023-05-25T11:44:09.294Z,6.30
2023-05-25T11:46:38.866Z,6.57
2023-05-25T11:49:06.050Z,5.93
2023-05-25T11:51:32.976Z,4.95
2023-05-25T11:53:59.993Z,5.38
2023-05-25T11:56:35.067Z,5.28
2023-05-25T11:59:02.767Z,5.60
2023-05-25T12:01:34.964Z,4.93
2023-05-25T12:04:08.380Z,5.40
2023-05-25T12:06:36.842Z,6.30
2023-05-25T12:09:08.756Z,5.28
2023-05-25T12:11:39.637Z,4.78
2023-05-25T12:14:07.964Z,4.82
2023-05-25T12:16:37.177Z,4.13
2023-05-25T12:19:05.937Z,4.90
2023-05-25T12:21:35.982Z,5.80
2023-05-25T12:24:06.375Z,4.28
2023-05-25T12:26:34.414Z,4.85
2023-05-25T12:29:11.050Z,6.25
2023-05-25T12:31:41.959Z,5.20
2023-05-25T12:34:16.391Z,4.97
2023-05-25T12:36:49.844Z,5.07
2023-05-25T12:39:39.905Z,4.68
2023-05-25T12:42:15.783Z,5.50
2023-05-25T12:44:44.763Z,5.53
2023-05-25T12:47:20.963Z,5.70
2023-05-25T12:49:53.755Z,5.40
2023-05-25T12:52:50.495Z,5.82
2023-05-25T12:55:27.808Z,5.22
2023-05-25T12:57:56.771Z,4.75
2023-05-25T13:00:37.733Z,5.43
2023-05-25T13:03:08.312Z,5.00
2023-05-25T13:05:37.183Z,5.03
2023-05-25T13:08:05.315Z,5.55
2023-05-25T13:10:33.688Z,5.70
2023-05-25T13:13:01.516Z,5.97
2023-05-25T13:15:29.948Z,5.45
2023-05-25T13:18:01.187Z,5.50
2023-05-25T13:20:32.732Z,5.38
2023-05-25T13:23:00.568Z,5.25
2023-05-25T13:25:29.496Z,5.30
2023-05-25T13:28:00.386Z,5.57
2023-05-25T13:30:28.616Z,5.45
2023-05-25T13:33:03.789Z,4.60
2023-05-25T13:35:44.277Z,5.20
2023-05-25T13:38:16.619Z,5.80
2023-05-25T13:40:45.010Z,5.32
2023-05-25T13:43:12.039Z,5.25
2023-05-25T13:45:39.322Z,4.13
2023-05-25T13:48:06.326Z,4.63
2023-05-25T13:50:33.452Z,5.47
2023-05-25T13:53:00.360Z,5.30
2023-05-25T13:55:27.290Z,4.80
2023-05-25T13:57:54.296Z,5.65
2023-05-25T14:00:21.464Z,5.00
2023-05-25T14:02:48.493Z,5.32
2023-05-25T14:05:15.521Z,5.05
2023-05-25T14:07:42.598Z,5.93
2023-05-25T14:10:10.320Z,5.20
2023-05-25T14:12:37.309Z,6.22
2023-05-25T14:15:04.933Z,4.75
2023-05-25T14:17:31.951Z,5.75
2023-05-25T14:19:59.139Z,5.82
2023-05-25T14:22:27.922Z,4.95
2023-05-25T14:24:54.966Z,4.72
2023-05-25T14:27:21.995Z,5.22
2023-05-25T14:29:49.510Z,5.00
2023-05-25T14:32:17.189Z,5.22
2023-05-25T14:34:44.319Z,6.72
2023-05-25T14:37:19.215Z,7.05
2023-05-25T14:39:55.430Z,6.75
2023-05-25T14:42:25.111Z,6.57
2023-05-25T14:44:52.024Z,9.13
2023-05-25T14:47:19.026Z,5.43
2023-05-25T14:49:45.958Z,5.38
2023-05-25T14:52:12.991Z,5.50
2023-05-25T14:54:44.843Z,5.10
2023-05-25T14:57:12.342Z,5.80
2023-05-25T14:59:39.311Z,6.03
2023-05-25T15:02:06.353Z,5.28
2023-05-25T15:04:33.275Z,5.75
2023-05-25T15:07:00.713Z,5.32
2023-05-25T15:09:27.681Z,5.45
2023-05-25T15:11:54.616Z,5.72
2023-05-25T15:14:21.563Z,5.50
2023-05-25T15:16:48.523Z,5.85
2023-05-25T15:19:17.571Z,6.10
2023-05-25T15:21:44.793Z,5.72
2023-05-25T15:24:13.914Z,6.15
2023-05-25T15:26:40.853Z,5.68
2023-05-25T15:29:07.776Z,5.60
2023-05-25T15:31:34.929Z,5.57
2023-05-25T15:34:01.927Z,5.57
2023-05-25T15:36:28.889Z,5.13
2023-05-25T15:38:56.002Z,5.57
2023-05-25T15:41:23.371Z,6.55
2023-05-25T15:43:52.759Z,6.05
2023-05-25T15:46:19.870Z,5.20
2023-05-25T15:48:47.019Z,5.15
2023-05-25T15:51:13.956Z,5.78
2023-05-25T15:53:40.987Z,5.78
2023-05-25T15:56:07.890Z,5.90
2023-05-25T15:58:34.868Z,6.15
2023-05-25T16:01:01.895Z,5.95
2023-05-25T16:03:29.707Z,5.28
2023-05-25T16:05:57.079Z,5.47
2023-05-25T16:08:24.105Z,6.43
2023-05-25T16:10:51.156Z,5.53
2023-05-25T16:13:18.045Z,5.65
2023-05-25T16:15:45.206Z,4.75
2023-05-25T16:18:12.236Z,5.47
2023-05-25T16:20:39.372Z,4.95
2023-05-25T16:23:06.704Z,5.30
2023-05-25T16:25:33.634Z,6.03
2023-05-25T16:28:00.623Z,5.18
2023-05-25T16:30:27.558Z,6.20
2023-05-25T16:32:54.487Z,5.88
2023-05-25T16:35:21.704Z,5.85
2023-05-25T16:37:48.666Z,5.65
2023-05-25T16:40:15.737Z,6.13
2023-05-25T16:42:42.841Z,6.10
2023-05-25T16:45:10.102Z,5.93
2023-05-25T16:47:38.162Z,6.13
2023-05-25T16:50:06.135Z,6.07
2023-05-25T16:52:33.061Z,6.28
2023-05-25T16:55:00.040Z,5.70
2023-05-25T16:57:26.986Z,5.75
2023-05-25T16:59:53.954Z,5.32
2023-05-25T17:02:21.097Z,5.50
2023-05-25T17:04:48.015Z,5.13
2023-05-25T17:07:14.999Z,5.40
2023-05-25T17:09:41.903Z,5.40
2023-05-25T17:12:09.012Z,5.95
2023-05-25T17:14:36.046Z,5.72
2023-05-25T17:17:03.254Z,6.10
2023-05-25T17:19:30.777Z,5.43
2023-05-25T17:21:57.699Z,6.50
2023-05-25T17:24:24.649Z,6.20
2023-05-25T17:26:51.827Z,5.00
2023-05-25T17:29:18.812Z,5.65
2023-05-25T17:31:48.472Z,5.88
2023-05-25T17:34:16.269Z,5.30
2023-05-25T17:36:43.354Z,5.43
2023-05-25T17:39:10.351Z,5.90
2023-05-25T17:41:37.308Z,5.93
2023-05-25T17:44:04.290Z,5.00
2023-05-25T17:46:31.459Z,5.25
2023-05-25T17:48:58.544Z,5.75
2023-05-25T17:51:25.834Z,5.38
2023-05-25T17:53:52.805Z,4.88
2023-05-25T17:56:19.729Z,5.47
2023-05-25T17:58:47.974Z,5.78
2023-05-25T18:01:15.488Z,5.22
2023-05-25T18:03:42.863Z,5.25
2023-05-25T18:06:10.837Z,6.05
2023-05-25T18:08:38.030Z,5.85
2023-05-25T18:11:05.675Z,4.85
2023-05-25T18:13:32.673Z,6.10
2023-05-25T18:15:59.759Z,5.57
2023-05-25T18:18:27.261Z,5.15
2023-05-25T18:20:54.678Z,5.72
2023-05-25T18:23:22.446Z,6.05
2023-05-25T18:25:49.714Z,5.97
2023-05-25T18:28:16.652Z,6.15
2023-05-25T18:30:43.679Z,6.22
2023-05-25T18:33:10.963Z,5.70
2023-05-25T18:35:39.311Z,6.57
2023-05-25T18:38:09.389Z,7.07
2023-05-25T18:40:39.644Z,6.10
2023-05-25T18:43:08.246Z,6.55
2023-05-25T18:45:36.550Z,6.18
2023-05-25T18:48:07.747Z,6.30
2023-05-25T18:50:38.985Z,6.28
2023-05-25T18:53:10.915Z,6.38
2023-05-25T18:55:39.278Z,6.32
2023-05-25T18:58:07.092Z,6.10
2023-05-25T19:00:34.312Z,6.55
2023-05-25T19:03:02.391Z,6.43
2023-05-25T19:05:30.475Z,6.68
2023-05-25T19:08:00.016Z,6.55
2023-05-25T19:10:27.522Z,7.07
2023-05-25T19:12:54.651Z,7.65
2023-05-25T19:15:21.624Z,6.22
2023-05-25T19:17:49.282Z,7.63
2023-05-25T19:20:16.942Z,6.97
2023-05-25T19:22:44.205Z,7.32
2023-05-25T19:25:11.237Z,7.70
2023-05-25T19:27:38.305Z,6.72
2023-05-25T19:30:05.677Z,7.10
2023-05-25T19:32:32.804Z,6.82
2023-05-25T19:34:59.911Z,6.50
2023-05-25T19:37:26.910Z,7.32
2023-05-25T19:39:53.852Z,7.13
2023-05-25T19:42:20.861Z,8.27
2023-05-25T19:44:47.821Z,7.28
2023-05-25T19:47:14.804Z,7.25
2023-05-25T19:49:41.917Z,7.07
2023-05-25T19:52:08.962Z,8.32
2023-05-25T19:54:36.022Z,8.32
2023-05-25T19:57:03.081Z,6.85
2023-05-25T19:59:31.474Z,8.25
2023-05-25T20:01:58.597Z,8.32
2023-05-25T20:04:25.567Z,7.35
2023-05-25T20:06:52.897Z,7.53
2023-05-25T20:09:19.922Z,8.10
2023-05-25T20:11:46.814Z,7.57
2023-05-25T20:14:13.731Z,7.90
2023-05-25T20:16:41.691Z,7.60
2023-05-25T20:19:11.116Z,7.63
2023-05-25T20:21:38.549Z,7.95
2023-05-25T20:24:05.593Z,8.07
2023-05-25T20:26:32.608Z,8.38
2023-05-25T20:29:07.428Z,7.93
2023-05-25T20:31:37.351Z,7.57
2023-05-25T20:34:04.610Z,8.35
2023-05-25T20:36:33.077Z,8.27
2023-05-25T20:39:00.127Z,8.00
2023-05-25T20:41:27.170Z,7.97
2023-05-25T20:43:57.110Z,8.63
2023-05-25T20:46:24.170Z,8.40
2023-05-25T20:48:52.026Z,8.00
2023-05-25T20:51:19.069Z,8.57
2023-05-25T20:53:45.973Z,8.52
2023-05-25T20:56:12.899Z,9.18
2023-05-25T20:58:40.957Z,8.60
2023-05-25T21:01:08.194Z,9.13
2023-05-25T21:03:35.349Z,8.88
2023-05-25T21:06:02.440Z,9.10
2023-05-25T21:08:29.323Z,8.68
2023-05-25T21:10:56.419Z,9.23
2023-05-25T21:13:23.369Z,9.25
2023-05-25T21:15:50.390Z,9.00
2023-05-25T21:18:17.334Z,9.13
2023-05-25T21:20:44.516Z,9.63
2023-05-25T21:23:11.454Z,8.38
2023-05-25T21:25:38.385Z,9.32
2023-05-25T21:28:06.935Z,8.80
2023-05-25T21:30:33.849Z,9.05
2023-05-25T21:33:00.872Z,9.07
2023-05-25T21:35:27.892Z,9.18
2023-05-25T21:37:54.817Z,9.30
2023-05-25T21:40:21.713Z,9.27
2023-05-25T21:42:51.104Z,9.50
2023-05-25T21:45:18.271Z,9.43
2023-05-25T21:47:45.311Z,9.20
2023-05-25T21:50:12.256Z,9.82
2023-05-25T21:52:39.213Z,9.18
2023-05-25T21:55:06.643Z,10.05
2023-05-25T21:57:33.586Z,9.55
2023-05-25T22:00:00.574Z,9.65
2023-05-25T22:02:27.553Z,10.45
2023-05-25T22:04:54.569Z,10.40
2023-05-25T22:07:21.910Z,8.93
2023-05-25T22:09:48.805Z,9.68
2023-05-25T22:12:15.687Z,10.38
2023-05-25T22:14:42.743Z,9.65
2023-05-25T22:17:09.836Z,10.38
2023-05-25T22:19:36.873Z,10.68
2023-05-25T22:22:03.892Z,10.27
2023-05-25T22:24:30.820Z,10.00
2023-05-25T22:26:57.821Z,10.23
2023-05-25T22:29:24.790Z,10.32
2023-05-25T22:31:51.935Z,11.18
2023-05-25T22:34:18.835Z,9.95
2023-05-25T22:36:45.739Z,10.93
2023-05-25T22:39:12.702Z,10.02
2023-05-25T22:41:39.625Z,11.18
2023-05-25T22:44:06.589Z,11.13
2023-05-25T22:46:33.529Z,10.48
2023-05-25T22:49:00.472Z,10.88
2023-05-25T22:51:27.423Z,10.95
2023-05-25T22:53:54.351Z,11.07
2023-05-25T22:56:21.336Z,11.75
2023-05-25T22:58:48.237Z,10.98
2023-05-25T23:01:17.850Z,12.05
2023-05-25T23:03:44.933Z,12.18
2023-05-25T23:06:11.884Z,11.23
2023-05-25T23:08:39.466Z,11.55
2023-05-25T23:11:06.449Z,11.27
2023-05-25T23:13:33.356Z,11.15
2023-05-25T23:16:00.328Z,9.85
2023-05-25T23:18:27.304Z,11.43
2023-05-25T23:20:54.199Z,10.35
2023-05-25T23:23:21.099Z,10.38
2023-05-25T23:25:48.022Z,11.00
2023-05-25T23:28:15.000Z,11.30
2023-05-25T23:30:41.972Z,11.80
2023-05-25T23:33:10.424Z,10.30
2023-05-25T23:35:37.452Z,11.63
2023-05-25T23:38:05.562Z,11.38
2023-05-25T23:40:32.520Z,10.95
2023-05-25T23:42:59.550Z,10.75
2023-05-25T23:45:26.545Z,11.02
2023-05-25T23:47:53.886Z,10.85
2023-05-25T23:50:20.906Z,11.18
2023-05-25T23:52:47.831Z,11.13
2023-05-25T23:55:14.742Z,11.07
2023-05-25T23:57:41.751Z,9.60
